sensor_id;sensor_type;location;lat;lon;timestamp;pressure;altitude;pressure_sealevel;temperature
79089;BMP280;68489;50.286;9.452;2023-12-04T00:01:43;97387.91;;;-4.54
79089;BMP280;68489;50.286;9.452;2023-12-04T00:04:10;97394.16;;;-4.55
79089;BMP280;68489;50.286;9.452;2023-12-04T00:06:35;97381.63;;;-4.53
79089;BMP280;68489;50.286;9.452;2023-12-04T00:09:00;97380.44;;;-4.55
79089;BMP280;68489;50.286;9.452;2023-12-04T00:11:26;97371.81;;;-4.59
79089;BMP280;68489;50.286;9.452;2023-12-04T00:13:51;97377.53;;;-4.54
79089;BMP280;68489;50.286;9.452;2023-12-04T00:16:17;97373.09;;;-4.53
79089;BMP280;68489;50.286;9.452;2023-12-04T00:18:43;97373.09;;;-4.53
79089;BMP280;68489;50.286;9.452;2023-12-04T00:21:08;97356.34;;;-4.56
79089;BMP280;68489;50.286;9.452;2023-12-04T00:23:34;97350.06;;;-4.55
79089;BMP280;68489;50.286;9.452;2023-12-04T00:25:59;97355.34;;;-4.51
79089;BMP280;68489;50.286;9.452;2023-12-04T00:28:24;97351.34;;;-4.49
79089;BMP280;68489;50.286;9.452;2023-12-04T00:30:50;97349.81;;;-4.50
79089;BMP280;68489;50.286;9.452;2023-12-04T00:33:15;97347.56;;;-4.51
79089;BMP280;68489;50.286;9.452;2023-12-04T00:35:40;97333.50;;;-4.50
79089;BMP280;68489;50.286;9.452;2023-12-04T00:38:06;97332.09;;;-4.48
79089;BMP280;68489;50.286;9.452;2023-12-04T00:40:31;97322.91;;;-4.45
79089;BMP280;68489;50.286;9.452;2023-12-04T00:42:56;97318.03;;;-4.47
79089;BMP280;68489;50.286;9.452;2023-12-04T00:45:22;97316.22;;;-4.46
79089;BMP280;68489;50.286;9.452;2023-12-04T00:47:47;97309.94;;;-4.45
79089;BMP280;68489;50.286;9.452;2023-12-04T00:50:12;97303.97;;;-4.46
79089;BMP280;68489;50.286;9.452;2023-12-04T00:52:38;97310.69;;;-4.45
79089;BMP280;68489;50.286;9.452;2023-12-04T00:55:03;97313.63;;;-4.46
79089;BMP280;68489;50.286;9.452;2023-12-04T00:57:29;97304.66;;;-4.49
79089;BMP280;68489;50.286;9.452;2023-12-04T00:59:54;97306.22;;;-4.44
79089;BMP280;68489;50.286;9.452;2023-12-04T01:02:19;97300.97;;;-4.48
79089;BMP280;68489;50.286;9.452;2023-12-04T01:04:45;97301.47;;;-4.42
79089;BMP280;68489;50.286;9.452;2023-12-04T01:07:10;97293.41;;;-4.41
79089;BMP280;68489;50.286;9.452;2023-12-04T01:09:35;97298.34;;;-4.35
79089;BMP280;68489;50.286;9.452;2023-12-04T01:12:01;97301.78;;;-4.31
79089;BMP280;68489;50.286;9.452;2023-12-04T01:14:26;97286.53;;;-4.33
79089;BMP280;68489;50.286;9.452;2023-12-04T01:16:52;97283.94;;;-4.33
79089;BMP280;68489;50.286;9.452;2023-12-04T01:19:18;97279.63;;;-4.29
79089;BMP280;68489;50.286;9.452;2023-12-04T01:21:43;97284.72;;;-4.32
79089;BMP280;68489;50.286;9.452;2023-12-04T01:24:08;97283.53;;;-4.35
79089;BMP280;68489;50.286;9.452;2023-12-04T01:26:34;97274.66;;;-4.34
79089;BMP280;68489;50.286;9.452;2023-12-04T01:28:59;97274.56;;;-4.37
79089;BMP280;68489;50.286;9.452;2023-12-04T01:31:24;97275.31;;;-4.37
79089;BMP280;68489;50.286;9.452;2023-12-04T01:33:50;97262.88;;;-4.44
79089;BMP280;68489;50.286;9.452;2023-12-04T01:36:15;97275.09;;;-4.44
79089;BMP280;68489;50.286;9.452;2023-12-04T01:38:40;97266.91;;;-4.46
79089;BMP280;68489;50.286;9.452;2023-12-04T01:41:06;97261.19;;;-4.52
79089;BMP280;68489;50.286;9.452;2023-12-04T01:43:31;97246.25;;;-4.55
79089;BMP280;68489;50.286;9.452;2023-12-04T01:45:57;97254.47;;;-4.53
79089;BMP280;68489;50.286;9.452;2023-12-04T01:48:23;97250.03;;;-4.52
79089;BMP280;68489;50.286;9.452;2023-12-04T01:50:49;97239.91;;;-4.57
79089;BMP280;68489;50.286;9.452;2023-12-04T01:53:15;97239.34;;;-4.63
79089;BMP280;68489;50.286;9.452;2023-12-04T01:55:40;97225.31;;;-4.62
79089;BMP280;68489;50.286;9.452;2023-12-04T01:58:06;97228.66;;;-4.62
79089;BMP280;68489;50.286;9.452;2023-12-04T02:00:32;97225.75;;;-4.60
79089;BMP280;68489;50.286;9.452;2023-12-04T02:02:58;97212.34;;;-4.62
79089;BMP280;68489;50.286;9.452;2023-12-04T02:05:23;97218.75;;;-4.59
79089;BMP280;68489;50.286;9.452;2023-12-04T02:07:49;97202.41;;;-4.60
79089;BMP280;68489;50.286;9.452;2023-12-04T02:10:15;97200.13;;;-4.62
79089;BMP280;68489;50.286;9.452;2023-12-04T02:12:40;97215.69;;;-4.62
79089;BMP280;68489;50.286;9.452;2023-12-04T02:15:06;97211.34;;;-4.57
79089;BMP280;68489;50.286;9.452;2023-12-04T02:17:32;97204.66;;;-4.58
79089;BMP280;68489;50.286;9.452;2023-12-04T02:19:57;97194.38;;;-4.55
79089;BMP280;68489;50.286;9.452;2023-12-04T02:22:23;97202.16;;;-4.55
79089;BMP280;68489;50.286;9.452;2023-12-04T02:24:48;97198.16;;;-4.52
79089;BMP280;68489;50.286;9.452;2023-12-04T02:27:25;97195.91;;;-4.54
79089;BMP280;68489;50.286;9.452;2023-12-04T02:29:55;97202.59;;;-4.53
79089;BMP280;68489;50.286;9.452;2023-12-04T02:32:23;97196.72;;;-4.50
79089;BMP280;68489;50.286;9.452;2023-12-04T02:34:49;97195.66;;;-4.49
79089;BMP280;68489;50.286;9.452;2023-12-04T02:37:15;97186.03;;;-4.48
79089;BMP280;68489;50.286;9.452;2023-12-04T02:39:42;97176.84;;;-4.46
79089;BMP280;68489;50.286;9.452;2023-12-04T02:42:08;97185.16;;;-4.40
79089;BMP280;68489;50.286;9.452;2023-12-04T02:44:33;97181.13;;;-4.37
79089;BMP280;68489;50.286;9.452;2023-12-04T02:46:59;97175.59;;;-4.36
79089;BMP280;68489;50.286;9.452;2023-12-04T02:49:24;97178.94;;;-4.35
79089;BMP280;68489;50.286;9.452;2023-12-04T02:51:50;97158.63;;;-4.33
79089;BMP280;68489;50.286;9.452;2023-12-04T02:54:15;97168.06;;;-4.25
79089;BMP280;68489;50.286;9.452;2023-12-04T02:56:40;97163.63;;;-4.25
79089;BMP280;68489;50.286;9.452;2023-12-04T02:59:05;97161.56;;;-4.19
79089;BMP280;68489;50.286;9.452;2023-12-04T03:01:31;97158.19;;;-4.20
79089;BMP280;68489;50.286;9.452;2023-12-04T03:03:56;97163.84;;;-4.18
79089;BMP280;68489;50.286;9.452;2023-12-04T03:06:22;97170.53;;;-4.17
79089;BMP280;68489;50.286;9.452;2023-12-04T03:08:47;97162.41;;;-4.15
79089;BMP280;68489;50.286;9.452;2023-12-04T03:11:13;97158.66;;;-4.18
79089;BMP280;68489;50.286;9.452;2023-12-04T03:13:38;97159.09;;;-4.15
79089;BMP280;68489;50.286;9.452;2023-12-04T03:16:04;97153.47;;;-4.18
79089;BMP280;68489;50.286;9.452;2023-12-04T03:18:29;97154.97;;;-4.17
79089;BMP280;68489;50.286;9.452;2023-12-04T03:20:55;97140.56;;;-4.14
79089;BMP280;68489;50.286;9.452;2023-12-04T03:23:20;97138.09;;;-4.23
79089;BMP280;68489;50.286;9.452;2023-12-04T03:25:46;97136.69;;;-4.20
79089;BMP280;68489;50.286;9.452;2023-12-04T03:28:11;97139.94;;;-4.23
79089;BMP280;68489;50.286;9.452;2023-12-04T03:30:38;97133.59;;;-4.26
79089;BMP280;68489;50.286;9.452;2023-12-04T03:33:03;97130.91;;;-4.29
79089;BMP280;68489;50.286;9.452;2023-12-04T03:35:29;97127.22;;;-4.28
79089;BMP280;68489;50.286;9.452;2023-12-04T03:37:54;97115.75;;;-4.27
79089;BMP280;68489;50.286;9.452;2023-12-04T03:40:19;97113.50;;;-4.29
79089;BMP280;68489;50.286;9.452;2023-12-04T03:42:45;97124.94;;;-4.30
79089;BMP280;68489;50.286;9.452;2023-12-04T03:45:10;97117.50;;;-4.31
79089;BMP280;68489;50.286;9.452;2023-12-04T03:47:36;97119.69;;;-4.33
79089;BMP280;68489;50.286;9.452;2023-12-04T03:50:01;97122.34;;;-4.30
79089;BMP280;68489;50.286;9.452;2023-12-04T03:52:26;97119.75;;;-4.30
79089;BMP280;68489;50.286;9.452;2023-12-04T03:54:52;97121.19;;;-4.32
79089;BMP280;68489;50.286;9.452;2023-12-04T03:57:17;97111.22;;;-4.30
79089;BMP280;68489;50.286;9.452;2023-12-04T03:59:43;97099.41;;;-4.28
79089;BMP280;68489;50.286;9.452;2023-12-04T04:02:09;97096.16;;;-4.25
79089;BMP280;68489;50.286;9.452;2023-12-04T04:04:34;97098.06;;;-4.22
79089;BMP280;68489;50.286;9.452;2023-12-04T04:06:59;97089.22;;;-4.21
79089;BMP280;68489;50.286;9.452;2023-12-04T04:09:25;97089.53;;;-4.22
79089;BMP280;68489;50.286;9.452;2023-12-04T04:11:50;97075.47;;;-4.21
79089;BMP280;68489;50.286;9.452;2023-12-04T04:14:15;97074.72;;;-4.22
79089;BMP280;68489;50.286;9.452;2023-12-04T04:16:41;97068.88;;;-4.19
79089;BMP280;68489;50.286;9.452;2023-12-04T04:19:06;97063.34;;;-4.17
79089;BMP280;68489;50.286;9.452;2023-12-04T04:21:31;97063.16;;;-4.24
79089;BMP280;68489;50.286;9.452;2023-12-04T04:23:57;97066.69;;;-4.17
79089;BMP280;68489;50.286;9.452;2023-12-04T04:26:22;97066.53;;;-4.24
79089;BMP280;68489;50.286;9.452;2023-12-04T04:28:47;97060.00;;;-4.18
79089;BMP280;68489;50.286;9.452;2023-12-04T04:31:13;97043.31;;;-4.17
79089;BMP280;68489;50.286;9.452;2023-12-04T04:33:38;97054.06;;;-4.18
79089;BMP280;68489;50.286;9.452;2023-12-04T04:36:04;97044.50;;;-4.14
79089;BMP280;68489;50.286;9.452;2023-12-04T04:38:29;97046.41;;;-4.11
79089;BMP280;68489;50.286;9.452;2023-12-04T04:40:55;97044.84;;;-4.15
79089;BMP280;68489;50.286;9.452;2023-12-04T04:43:20;97038.56;;;-4.14
79089;BMP280;68489;50.286;9.452;2023-12-04T04:45:46;97040.81;;;-4.13
79089;BMP280;68489;50.286;9.452;2023-12-04T04:48:11;97040.47;;;-4.11
79089;BMP280;68489;50.286;9.452;2023-12-04T04:50:37;97041.56;;;-4.12
79089;BMP280;68489;50.286;9.452;2023-12-04T04:53:02;97038.22;;;-4.13
79089;BMP280;68489;50.286;9.452;2023-12-04T04:55:27;97053.47;;;-4.11
79089;BMP280;68489;50.286;9.452;2023-12-04T04:57:53;97040.81;;;-4.13
79089;BMP280;68489;50.286;9.452;2023-12-04T05:00:18;97040.06;;;-4.13
79089;BMP280;68489;50.286;9.452;2023-12-04T05:02:44;97044.97;;;-4.08
79089;BMP280;68489;50.286;9.452;2023-12-04T05:05:11;97032.75;;;-4.08
79089;BMP280;68489;50.286;9.452;2023-12-04T05:07:36;97032.34;;;-4.10
79089;BMP280;68489;50.286;9.452;2023-12-04T05:10:02;97039.38;;;-4.10
79089;BMP280;68489;50.286;9.452;2023-12-04T05:12:27;97045.72;;;-4.08
79089;BMP280;68489;50.286;9.452;2023-12-04T05:14:52;97033.44;;;-4.11
79089;BMP280;68489;50.286;9.452;2023-12-04T05:17:18;97043.13;;;-4.08
79089;BMP280;68489;50.286;9.452;2023-12-04T05:19:43;97040.53;;;-4.08
79089;BMP280;68489;50.286;9.452;2023-12-04T05:22:08;97045.41;;;-4.06
79089;BMP280;68489;50.286;9.452;2023-12-04T05:24:34;97043.13;;;-4.08
79089;BMP280;68489;50.286;9.452;2023-12-04T05:27:00;97047.59;;;-4.08
79089;BMP280;68489;50.286;9.452;2023-12-04T05:29:25;97053.53;;;-4.08
79089;BMP280;68489;50.286;9.452;2023-12-04T05:31:51;97048.69;;;-4.09
79089;BMP280;68489;50.286;9.452;2023-12-04T05:34:16;97043.06;;;-4.11
79089;BMP280;68489;50.286;9.452;2023-12-04T05:36:41;97056.06;;;-4.11
79089;BMP280;68489;50.286;9.452;2023-12-04T05:39:07;97049.69;;;-4.14
79089;BMP280;68489;50.286;9.452;2023-12-04T05:41:32;97051.75;;;-4.20
79089;BMP280;68489;50.286;9.452;2023-12-04T05:43:57;97052.63;;;-4.15
79089;BMP280;68489;50.286;9.452;2023-12-04T05:46:23;97056.72;;;-4.14
79089;BMP280;68489;50.286;9.452;2023-12-04T05:48:48;97059.41;;;-4.11
79089;BMP280;68489;50.286;9.452;2023-12-04T05:51:13;97053.03;;;-4.13
79089;BMP280;68489;50.286;9.452;2023-12-04T05:53:40;97047.78;;;-4.17
79089;BMP280;68489;50.286;9.452;2023-12-04T05:56:06;97045.41;;;-4.22
79089;BMP280;68489;50.286;9.452;2023-12-04T05:58:32;97050.72;;;-4.19
79089;BMP280;68489;50.286;9.452;2023-12-04T06:00:57;97056.53;;;-4.22
79089;BMP280;68489;50.286;9.452;2023-12-04T06:03:22;97048.41;;;-4.20
79089;BMP280;68489;50.286;9.452;2023-12-04T06:05:48;97046.56;;;-4.20
79089;BMP280;68489;50.286;9.452;2023-12-04T06:08:13;97037.97;;;-4.24
79089;BMP280;68489;50.286;9.452;2023-12-04T06:10:39;97037.28;;;-4.21
79089;BMP280;68489;50.286;9.452;2023-12-04T06:13:05;97028.41;;;-4.20
79089;BMP280;68489;50.286;9.452;2023-12-04T06:15:30;97029.00;;;-4.26
79089;BMP280;68489;50.286;9.452;2023-12-04T06:17:55;97042.06;;;-4.23
79089;BMP280;68489;50.286;9.452;2023-12-04T06:20:21;97041.09;;;-4.18
79089;BMP280;68489;50.286;9.452;2023-12-04T06:22:46;97029.28;;;-4.15
79089;BMP280;68489;50.286;9.452;2023-12-04T06:25:12;97030.34;;;-4.17
79089;BMP280;68489;50.286;9.452;2023-12-04T06:27:38;97018.03;;;-4.20
79089;BMP280;68489;50.286;9.452;2023-12-04T06:30:05;97015.78;;;-4.21
79089;BMP280;68489;50.286;9.452;2023-12-04T06:32:31;97011.34;;;-4.21
79089;BMP280;68489;50.286;9.452;2023-12-04T06:34:57;96998.53;;;-4.29
79089;BMP280;68489;50.286;9.452;2023-12-04T06:37:22;97002.31;;;-4.27
79089;BMP280;68489;50.286;9.452;2023-12-04T06:39:48;96989.25;;;-4.30
79089;BMP280;68489;50.286;9.452;2023-12-04T06:42:15;96988.06;;;-4.33
79089;BMP280;68489;50.286;9.452;2023-12-04T06:44:40;96977.28;;;-4.35
79089;BMP280;68489;50.286;9.452;2023-12-04T06:47:07;96974.34;;;-4.33
79089;BMP280;68489;50.286;9.452;2023-12-04T06:49:33;96979.53;;;-4.33
79089;BMP280;68489;50.286;9.452;2023-12-04T06:51:59;96990.28;;;-4.35
79089;BMP280;68489;50.286;9.452;2023-12-04T06:54:25;96996.94;;;-4.34
79089;BMP280;68489;50.286;9.452;2023-12-04T06:56:50;96995.72;;;-4.40
79089;BMP280;68489;50.286;9.452;2023-12-04T06:59:17;97003.16;;;-4.39
79089;BMP280;68489;50.286;9.452;2023-12-04T07:01:43;97009.59;;;-4.48
79089;BMP280;68489;50.286;9.452;2023-12-04T07:04:08;97008.91;;;-4.45
79089;BMP280;68489;50.286;9.452;2023-12-04T07:06:38;97016.34;;;-4.44
79089;BMP280;68489;50.286;9.452;2023-12-04T07:09:04;97010.66;;;-4.49
79089;BMP280;68489;50.286;9.452;2023-12-04T07:11:30;97015.78;;;-4.53
79089;BMP280;68489;50.286;9.452;2023-12-04T07:13:56;97016.47;;;-4.56
79089;BMP280;68489;50.286;9.452;2023-12-04T07:16:21;97015.19;;;-4.62
79089;BMP280;68489;50.286;9.452;2023-12-04T07:18:47;97007.81;;;-4.60
79089;BMP280;68489;50.286;9.452;2023-12-04T07:21:12;97007.41;;;-4.62
79089;BMP280;68489;50.286;9.452;2023-12-04T07:23:37;96998.97;;;-4.59
79089;BMP280;68489;50.286;9.452;2023-12-04T07:26:03;97012.75;;;-4.55
79089;BMP280;68489;50.286;9.452;2023-12-04T07:28:29;97005.75;;;-4.54
79089;BMP280;68489;50.286;9.452;2023-12-04T07:30:55;97009.44;;;-4.55
79089;BMP280;68489;50.286;9.452;2023-12-04T07:33:20;97007.19;;;-4.57
79089;BMP280;68489;50.286;9.452;2023-12-04T07:35:46;97014.28;;;-4.54
79089;BMP280;68489;50.286;9.452;2023-12-04T07:38:11;97010.66;;;-4.49
79089;BMP280;68489;50.286;9.452;2023-12-04T07:40:37;97014.53;;;-4.43
79089;BMP280;68489;50.286;9.452;2023-12-04T07:43:02;97009.34;;;-4.43
79089;BMP280;68489;50.286;9.452;2023-12-04T07:45:28;97004.47;;;-4.45
79089;BMP280;68489;50.286;9.452;2023-12-04T07:47:53;96997.78;;;-4.46
79089;BMP280;68489;50.286;9.452;2023-12-04T07:50:18;96986.50;;;-4.37
79089;BMP280;68489;50.286;9.452;2023-12-04T07:52:44;96985.81;;;-4.34
79089;BMP280;68489;50.286;9.452;2023-12-04T07:55:09;96980.38;;;-4.29
79089;BMP280;68489;50.286;9.452;2023-12-04T07:57:34;96986.31;;;-4.29
79089;BMP280;68489;50.286;9.452;2023-12-04T07:59:59;96977.09;;;-4.26
79089;BMP280;68489;50.286;9.452;2023-12-04T08:02:25;96974.16;;;-4.25
79089;BMP280;68489;50.286;9.452;2023-12-04T08:04:50;96970.13;;;-4.22
79089;BMP280;68489;50.286;9.452;2023-12-04T08:07:15;96974.06;;;-4.12
79089;BMP280;68489;50.286;9.452;2023-12-04T08:09:41;96967.38;;;-4.13
79089;BMP280;68489;50.286;9.452;2023-12-04T08:12:06;96964.44;;;-4.12
79089;BMP280;68489;50.286;9.452;2023-12-04T08:14:32;96971.28;;;-4.04
79089;BMP280;68489;50.286;9.452;2023-12-04T08:16:58;96949.28;;;-4.10
79089;BMP280;68489;50.286;9.452;2023-12-04T08:19:23;96936.09;;;-4.01
79089;BMP280;68489;50.286;9.452;2023-12-04T08:21:49;96928.25;;;-4.05
79089;BMP280;68489;50.286;9.452;2023-12-04T08:24:14;96945.47;;;-3.97
79089;BMP280;68489;50.286;9.452;2023-12-04T08:26:42;96944.44;;;-3.92
79089;BMP280;68489;50.286;9.452;2023-12-04T08:29:07;96931.88;;;-3.90
79089;BMP280;68489;50.286;9.452;2023-12-04T08:31:32;96946.44;;;-3.85
79089;BMP280;68489;50.286;9.452;2023-12-04T08:33:58;96943.38;;;-3.71
79089;BMP280;68489;50.286;9.452;2023-12-04T09:13:42;96894.22;;;-3.18
79089;BMP280;68489;50.286;9.452;2023-12-04T09:16:08;96899.75;;;-3.20
79089;BMP280;68489;50.286;9.452;2023-12-04T09:18:33;96896.84;;;-3.15
79089;BMP280;68489;50.286;9.452;2023-12-04T09:20:59;96899.97;;;-3.05
79089;BMP280;68489;50.286;9.452;2023-12-04T09:23:24;96897.81;;;-3.00
79089;BMP280;68489;50.286;9.452;2023-12-04T09:25:50;96887.78;;;-3.01
79089;BMP280;68489;50.286;9.452;2023-12-04T09:28:15;96877.41;;;-2.98
79089;BMP280;68489;50.286;9.452;2023-12-04T09:30:41;96865.53;;;-2.99
79089;BMP280;68489;50.286;9.452;2023-12-04T09:33:06;96863.31;;;-2.97
79089;BMP280;68489;50.286;9.452;2023-12-04T09:35:32;96868.03;;;-3.02
79089;BMP280;68489;50.286;9.452;2023-12-04T09:37:57;96858.94;;;-2.93
79089;BMP280;68489;50.286;9.452;2023-12-04T09:40:23;96854.59;;;-2.85
79089;BMP280;68489;50.286;9.452;2023-12-04T09:42:49;96851.72;;;-2.76
79089;BMP280;68489;50.286;9.452;2023-12-04T09:45:14;96836.59;;;-2.67
79089;BMP280;68489;50.286;9.452;2023-12-04T09:47:40;96833.44;;;-2.53
79089;BMP280;68489;50.286;9.452;2023-12-04T09:50:06;96814.78;;;-2.59
79089;BMP280;68489;50.286;9.452;2023-12-04T09:52:34;96819.69;;;-2.54
79089;BMP280;68489;50.286;9.452;2023-12-04T09:55:00;96808.28;;;-2.42
79089;BMP280;68489;50.286;9.452;2023-12-04T09:57:26;96809.13;;;-2.34
79089;BMP280;68489;50.286;9.452;2023-12-04T09:59:52;96803.66;;;-2.26
79089;BMP280;68489;50.286;9.452;2023-12-04T10:02:19;96819.09;;;-2.06
79089;BMP280;68489;50.286;9.452;2023-12-04T10:04:45;96806.13;;;-2.03
79089;BMP280;68489;50.286;9.452;2023-12-04T10:07:10;96813.59;;;-2.01
79089;BMP280;68489;50.286;9.452;2023-12-04T10:09:36;96813.66;;;-1.94
79089;BMP280;68489;50.286;9.452;2023-12-04T10:12:01;96813.81;;;-1.80
79089;BMP280;68489;50.286;9.452;2023-12-04T10:14:27;96815.69;;;-1.80
79089;BMP280;68489;50.286;9.452;2023-12-04T10:16:52;96812.72;;;-1.75
79089;BMP280;68489;50.286;9.452;2023-12-04T10:19:26;96813.75;;;-1.87
79089;BMP280;68489;50.286;9.452;2023-12-04T10:21:53;96798.06;;;-1.90
79089;BMP280;68489;50.286;9.452;2023-12-04T10:24:32;96792.41;;;-1.96
79089;BMP280;68489;50.286;9.452;2023-12-04T10:26:59;96792.06;;;-1.94
79089;BMP280;68489;50.286;9.452;2023-12-04T10:29:27;96787.53;;;-2.01
79089;BMP280;68489;50.286;9.452;2023-12-04T10:31:53;96786.03;;;-2.02
79089;BMP280;68489;50.286;9.452;2023-12-04T10:34:21;96802.38;;;-2.05
79089;BMP280;68489;50.286;9.452;2023-12-04T10:36:46;96793.25;;;-2.26
79089;BMP280;68489;50.286;9.452;2023-12-04T10:39:12;96788.88;;;-2.14
79089;BMP280;68489;50.286;9.452;2023-12-04T10:41:42;96778.78;;;-2.19
79089;BMP280;68489;50.286;9.452;2023-12-04T10:44:08;96768.69;;;-2.25
79089;BMP280;68489;50.286;9.452;2023-12-04T10:46:35;96764.88;;;-2.34
79089;BMP280;68489;50.286;9.452;2023-12-04T10:49:02;96751.56;;;-2.29
79089;BMP280;68489;50.286;9.452;2023-12-04T10:51:30;96741.03;;;-2.36
79089;BMP280;68489;50.286;9.452;2023-12-04T10:53:55;96733.94;;;-2.39
79089;BMP280;68489;50.286;9.452;2023-12-04T10:56:30;96718.31;;;-2.39
79089;BMP280;68489;50.286;9.452;2023-12-04T10:58:57;96718.28;;;-2.43
79089;BMP280;68489;50.286;9.452;2023-12-04T11:01:23;96726.78;;;-2.50
79089;BMP280;68489;50.286;9.452;2023-12-04T11:03:52;96723.06;;;-2.49
79089;BMP280;68489;50.286;9.452;2023-12-04T11:06:22;96725.41;;;-2.36
79089;BMP280;68489;50.286;9.452;2023-12-04T11:08:49;96724.25;;;-2.42
79089;BMP280;68489;50.286;9.452;2023-12-04T11:11:35;96718.28;;;-2.47
79089;BMP280;68489;50.286;9.452;2023-12-04T11:14:02;96703.81;;;-2.40
79089;BMP280;68489;50.286;9.452;2023-12-04T11:19:31;96726.53;;;-2.37
79089;BMP280;68489;50.286;9.452;2023-12-04T11:22:00;96729.88;;;-2.37
79089;BMP280;68489;50.286;9.452;2023-12-04T11:24:27;96725.53;;;-2.26
79089;BMP280;68489;50.286;9.452;2023-12-04T11:26:53;96726.22;;;-2.32
79089;BMP280;68489;50.286;9.452;2023-12-04T11:29:19;96725.97;;;-2.20
79089;BMP280;68489;50.286;9.452;2023-12-04T11:31:45;96735.31;;;-2.15
79089;BMP280;68489;50.286;9.452;2023-12-04T11:34:11;96730.44;;;-2.20
79089;BMP280;68489;50.286;9.452;2023-12-04T11:36:38;96731.19;;;-2.20
79089;BMP280;68489;50.286;9.452;2023-12-04T11:39:03;96723.34;;;-2.24
79089;BMP280;68489;50.286;9.452;2023-12-04T11:41:30;96722.97;;;-2.22
79089;BMP280;68489;50.286;9.452;2023-12-04T11:43:56;96720.13;;;-2.10
79089;BMP280;68489;50.286;9.452;2023-12-04T11:46:23;96729.09;;;-2.04
79089;BMP280;68489;50.286;9.452;2023-12-04T11:48:49;96741.06;;;-1.95
79089;BMP280;68489;50.286;9.452;2023-12-04T11:54:03;96738.44;;;-1.99
79089;BMP280;68489;50.286;9.452;2023-12-04T11:56:30;96740.31;;;-1.96
79089;BMP280;68489;50.286;9.452;2023-12-04T11:59:02;96724.69;;;-1.96
79089;BMP280;68489;50.286;9.452;2023-12-04T12:01:28;96708.78;;;-1.87
79089;BMP280;68489;50.286;9.452;2023-12-04T12:03:58;96685.63;;;-1.96
79089;BMP280;68489;50.286;9.452;2023-12-04T12:06:24;96671.84;;;-1.96
79089;BMP280;68489;50.286;9.452;2023-12-04T12:08:49;96656.22;;;-1.96
79089;BMP280;68489;50.286;9.452;2023-12-04T12:11:15;96640.22;;;-1.91
79089;BMP280;68489;50.286;9.452;2023-12-04T12:13:41;96635.84;;;-1.87
79089;BMP280;68489;50.286;9.452;2023-12-04T12:16:07;96641.44;;;-1.82
79089;BMP280;68489;50.286;9.452;2023-12-04T12:18:34;96634.75;;;-1.83
79089;BMP280;68489;50.286;9.452;2023-12-04T12:21:00;96629.56;;;-1.75
79089;BMP280;68489;50.286;9.452;2023-12-04T12:23:26;96655.94;;;-1.88
79089;BMP280;68489;50.286;9.452;2023-12-04T12:25:52;96644.06;;;-1.78
79089;BMP280;68489;50.286;9.452;2023-12-04T12:28:17;96646.25;;;-1.84
79089;BMP280;68489;50.286;9.452;2023-12-04T12:30:42;96656.69;;;-1.84
79089;BMP280;68489;50.286;9.452;2023-12-04T12:33:13;96666.38;;;-1.84
79089;BMP280;68489;50.286;9.452;2023-12-04T12:35:38;96675.34;;;-1.78
79089;BMP280;68489;50.286;9.452;2023-12-04T12:38:03;96697.38;;;-1.68
79089;BMP280;68489;50.286;9.452;2023-12-04T12:40:29;96701.63;;;-1.42
79089;BMP280;68489;50.286;9.452;2023-12-04T12:43:15;96693.06;;;-1.39
79089;BMP280;68489;50.286;9.452;2023-12-04T12:45:41;96690.53;;;-1.32
79089;BMP280;68489;50.286;9.452;2023-12-04T12:48:14;96676.00;;;-1.33
79089;BMP280;68489;50.286;9.452;2023-12-04T12:50:41;96659.50;;;-1.48
79089;BMP280;68489;50.286;9.452;2023-12-04T12:53:07;96659.44;;;-1.62
79089;BMP280;68489;50.286;9.452;2023-12-04T12:55:32;96644.47;;;-1.76
79089;BMP280;68489;50.286;9.452;2023-12-04T12:57:57;96645.50;;;-1.88
79089;BMP280;68489;50.286;9.452;2023-12-04T13:00:23;96633.09;;;-2.02
79089;BMP280;68489;50.286;9.452;2023-12-04T13:02:51;96633.50;;;-1.96
79089;BMP280;68489;50.286;9.452;2023-12-04T13:05:17;96635.72;;;-2.02
79089;BMP280;68489;50.286;9.452;2023-12-04T13:07:44;96628.63;;;-2.01
79089;BMP280;68489;50.286;9.452;2023-12-04T13:10:10;96623.44;;;-1.97
79089;BMP280;68489;50.286;9.452;2023-12-04T13:12:36;96611.63;;;-1.88
79089;BMP280;68489;50.286;9.452;2023-12-04T13:15:02;96594.06;;;-1.94
79089;BMP280;68489;50.286;9.452;2023-12-04T13:17:28;96583.72;;;-1.87
79089;BMP280;68489;50.286;9.452;2023-12-04T13:19:53;96581.88;;;-1.83
79089;BMP280;68489;50.286;9.452;2023-12-04T13:22:19;96574.44;;;-1.85
79089;BMP280;68489;50.286;9.452;2023-12-04T13:24:44;96560.72;;;-1.74
79089;BMP280;68489;50.286;9.452;2023-12-04T13:27:09;96540.56;;;-1.81
79089;BMP280;68489;50.286;9.452;2023-12-04T13:29:35;96534.22;;;-1.87
79089;BMP280;68489;50.286;9.452;2023-12-04T13:32:01;96537.97;;;-1.85
79089;BMP280;68489;50.286;9.452;2023-12-04T13:34:26;96526.31;;;-2.02
79089;BMP280;68489;50.286;9.452;2023-12-04T13:36:51;96525.22;;;-1.97
79089;BMP280;68489;50.286;9.452;2023-12-04T13:39:16;96515.88;;;-2.05
79089;BMP280;68489;50.286;9.452;2023-12-04T13:41:44;96519.25;;;-2.01
79089;BMP280;68489;50.286;9.452;2023-12-04T13:44:29;96525.53;;;-2.09
79089;BMP280;68489;50.286;9.452;2023-12-04T13:46:54;96520.72;;;-2.04
79089;BMP280;68489;50.286;9.452;2023-12-04T13:49:20;96516.59;;;-2.08
79089;BMP280;68489;50.286;9.452;2023-12-04T13:51:45;96524.78;;;-2.13
79089;BMP280;68489;50.286;9.452;2023-12-04T13:54:13;96496.81;;;-2.20
79089;BMP280;68489;50.286;9.452;2023-12-04T13:56:47;96502.38;;;-2.25
79089;BMP280;68489;50.286;9.452;2023-12-04T13:59:20;96483.78;;;-2.27
79089;BMP280;68489;50.286;9.452;2023-12-04T14:01:46;96481.94;;;-2.27
79089;BMP280;68489;50.286;9.452;2023-12-04T14:04:11;96475.94;;;-2.31
79089;BMP280;68489;50.286;9.452;2023-12-04T14:06:36;96467.78;;;-2.22
79089;BMP280;68489;50.286;9.452;2023-12-04T14:09:02;96466.31;;;-2.23
79089;BMP280;68489;50.286;9.452;2023-12-04T14:11:30;96464.84;;;-2.20
79089;BMP280;68489;50.286;9.452;2023-12-04T14:13:55;96464.78;;;-2.28
79089;BMP280;68489;50.286;9.452;2023-12-04T14:16:21;96455.16;;;-2.27
79089;BMP280;68489;50.286;9.452;2023-12-04T14:18:46;96464.38;;;-2.33
79089;BMP280;68489;50.286;9.452;2023-12-04T14:21:11;96461.75;;;-2.40
79089;BMP280;68489;50.286;9.452;2023-12-04T14:23:37;96457.66;;;-2.38
79089;BMP280;68489;50.286;9.452;2023-12-04T14:26:02;96456.88;;;-2.46
79089;BMP280;68489;50.286;9.452;2023-12-04T14:28:28;96454.28;;;-2.46
79089;BMP280;68489;50.286;9.452;2023-12-04T14:30:54;96451.66;;;-2.46
79089;BMP280;68489;50.286;9.452;2023-12-04T14:33:19;96442.38;;;-2.43
79089;BMP280;68489;50.286;9.452;2023-12-04T14:35:44;96447.59;;;-2.47
79089;BMP280;68489;50.286;9.452;2023-12-04T14:38:10;96447.94;;;-2.52
79089;BMP280;68489;50.286;9.452;2023-12-04T14:40:35;96449.75;;;-2.56
79089;BMP280;68489;50.286;9.452;2023-12-04T14:43:00;96445.69;;;-2.50
79089;BMP280;68489;50.286;9.452;2023-12-04T14:45:26;96442.38;;;-2.47